Time;durP1;ratioP1;P1;durP2;ratioP2;P2;SDS_P1;SDS_P2;PMS_P1;PMS_P2;Temp;Humidity;BMP_temperature;BMP_pressure;BME280_temperature;BME280_humidity;BME280_pressure;Samples;Min_cycle;Max_cycle;Signal;HPM_P1;HPM_P2
2022/08/10 00:00:45;;;;;;;1.90;1.70;;;23.70;44.80;;;;;;7388045;19;20460;-46
2022/08/10 00:03:15;;;;;;;2.70;2.17;;;23.70;45.00;;;;;;7385876;19;20361;-46
2022/08/10 00:05:44;;;;;;;1.93;1.80;;;23.70;45.20;;;;;;7389540;19;20384;-46
2022/08/10 00:08:14;;;;;;;3.13;2.00;;;23.50;45.40;;;;;;7388740;19;20376;-47
2022/08/10 00:10:45;;;;;;;2.50;2.27;;;23.50;45.60;;;;;;7386983;19;20384;-46
2022/08/10 00:13:17;;;;;;;2.30;2.10;;;23.60;45.70;;;;;;7386425;19;20364;-47
2022/08/10 00:15:47;;;;;;;2.50;2.00;;;23.60;45.70;;;;;;7387530;19;20389;-46
2022/08/10 00:18:16;;;;;;;2.20;2.00;;;23.60;45.90;;;;;;7388719;19;20388;-47
2022/08/10 00:20:46;;;;;;;2.13;1.83;;;23.40;46.20;;;;;;7389286;19;20897;-47
2022/08/10 00:23:16;;;;;;;1.80;1.70;;;23.20;46.70;;;;;;7388506;19;20866;-46
2022/08/10 00:25:45;;;;;;;2.87;1.77;;;22.90;48.00;;;;;;7387758;19;20375;-46
2022/08/10 00:28:17;;;;;;;2.80;1.87;;;22.90;47.50;;;;;;7387447;19;20465;-46
2022/08/10 00:30:46;;;;;;;2.33;1.80;;;22.90;47.50;;;;;;7382881;19;20510;-46
2022/08/10 00:33:16;;;;;;;2.03;1.93;;;22.90;47.60;;;;;;7386645;19;20419;-47
2022/08/10 00:35:45;;;;;;;2.20;1.80;;;22.60;48.00;;;;;;7388748;19;20372;-46
2022/08/10 00:38:15;;;;;;;3.40;2.00;;;22.50;48.50;;;;;;7386346;19;20388;-46
2022/08/10 00:40:44;;;;;;;2.13;1.93;;;22.50;48.60;;;;;;7387421;19;20743;-46
2022/08/10 00:43:17;;;;;;;2.43;2.00;;;22.40;48.80;;;;;;7385035;19;20392;-46
2022/08/10 00:45:46;;;;;;;1.97;1.70;;;22.40;48.90;;;;;;7387621;19;20496;-46
2022/08/10 00:48:15;;;;;;;2.23;2.03;;;22.30;49.20;;;;;;7385628;19;20372;-46
2022/08/10 00:50:45;;;;;;;3.43;1.93;;;22.30;49.30;;;;;;7384933;19;20397;-46
2022/08/10 00:53:14;;;;;;;3.60;2.60;;;22.10;49.60;;;;;;7385611;19;20372;-46
2022/08/10 00:55:44;;;;;;;2.57;2.37;;;22.10;50.00;;;;;;7385894;19;20492;-46
2022/08/10 00:58:17;;;;;;;2.47;2.23;;;22.10;49.90;;;;;;7386541;19;20785;-46
2022/08/10 01:00:49;;;;;;;2.13;1.80;;;22.10;49.90;;;;;;7385725;19;20745;-46
2022/08/10 01:03:18;;;;;;;2.13;1.93;;;22.20;49.80;;;;;;7384753;19;20368;-46
2022/08/10 01:06:00;;;;;;;3.07;2.13;;;22.20;49.90;;;;;;7386132;19;21069;-47
2022/08/10 01:08:37;;;;;;;2.20;2.00;;;22.10;50.20;;;;;;7384216;19;20841;-46
2022/08/10 01:11:11;;;;;;;2.37;1.80;;;22.00;50.30;;;;;;7386507;19;20387;-46
2022/08/10 01:13:51;;;;;;;2.60;2.40;;;22.00;50.50;;;;;;7385111;19;20379;-46
2022/08/10 01:16:27;;;;;;;2.60;2.00;;;21.90;50.80;;;;;;7385556;19;20715;-46
2022/08/10 01:19:16;;;;;;;2.43;2.10;;;21.90;51.00;;;;;;7384646;19;20380;-46
2022/08/10 01:22:12;;;;;;;5.33;2.63;;;22.00;50.80;;;;;;7386485;19;20383;-46
2022/08/10 01:25:03;;;;;;;2.33;2.13;;;22.00;50.80;;;;;;7381939;19;20399;-46
2022/08/10 01:27:38;;;;;;;2.17;1.90;;;21.90;51.60;;;;;;7385486;19;20384;-46
2022/08/10 01:30:13;;;;;;;3.00;2.50;;;21.70;51.40;;;;;;7386301;19;20450;-46
2022/08/10 01:32:52;;;;;;;2.90;1.87;;;21.50;52.00;;;;;;7385522;19;20368;-46
2022/08/10 01:35:28;;;;;;;2.27;2.00;;;21.30;52.50;;;;;;7384703;19;20380;-46
2022/08/10 01:38:05;;;;;;;4.30;2.00;;;21.10;52.80;;;;;;7387174;19;21000;-46
2022/08/10 01:40:38;;;;;;;2.10;1.90;;;21.00;53.30;;;;;;7384807;19;20376;-46
2022/08/10 01:43:11;;;;;;;2.10;1.90;;;21.00;53.30;;;;;;7381304;19;20417;-46
2022/08/10 01:45:46;;;;;;;2.50;2.23;;;21.00;53.40;;;;;;7382517;19;20452;-46
2022/08/10 01:48:29;;;;;;;7.80;2.20;;;20.90;53.60;;;;;;7383941;19;20746;-46
2022/08/10 01:51:17;;;;;;;2.40;2.20;;;20.80;53.80;;;;;;7383459;19;20390;-46
2022/08/10 01:53:50;;;;;;;2.03;1.83;;;20.80;54.00;;;;;;7383678;19;20381;-46
2022/08/10 01:56:22;;;;;;;2.83;2.23;;;20.80;54.20;;;;;;7384759;19;20432;-46
2022/08/10 01:58:55;;;;;;;2.90;1.77;;;20.70;54.30;;;;;;7385146;19;20798;-46
2022/08/10 02:01:34;;;;;;;2.70;2.50;;;20.70;54.50;;;;;;7380858;19;20440;-46
2022/08/10 02:04:10;;;;;;;2.43;2.23;;;20.80;54.40;;;;;;7381528;19;20394;-46
2022/08/10 02:06:46;;;;;;;2.57;2.37;;;20.70;54.70;;;;;;7384583;19;20364;-46
2022/08/10 02:09:19;;;;;;;3.80;2.03;;;20.70;54.80;;;;;;7381809;19;21083;-46
2022/08/10 02:11:51;;;;;;;5.13;2.20;;;20.60;55.00;;;;;;7383845;19;20950;-50
2022/08/10 02:14:22;;;;;;;4.00;2.03;;;20.60;55.10;;;;;;7383056;19;20910;-46
2022/08/10 02:16:55;;;;;;;2.43;2.00;;;20.60;55.00;;;;;;7383644;19;20383;-46
2022/08/10 02:19:26;;;;;;;2.57;2.37;;;20.50;55.30;;;;;;7383039;19;20421;-46
2022/08/10 02:21:57;;;;;;;2.00;1.90;;;20.60;55.40;;;;;;7384461;19;20380;-45
2022/08/10 02:24:30;;;;;;;2.33;2.13;;;20.60;55.40;;;;;;7384017;19;20384;-45
2022/08/10 02:27:00;;;;;;;2.17;1.97;;;20.60;55.30;;;;;;7381786;19;20941;-45
2022/08/10 02:29:33;;;;;;;2.10;2.00;;;20.70;55.30;;;;;;7384060;19;20376;-45
2022/08/10 02:32:08;;;;;;;2.63;2.00;;;20.70;55.30;;;;;;7379890;19;20391;-45
2022/08/10 02:34:38;;;;;;;3.20;2.53;;;20.80;55.20;;;;;;7380946;19;20415;-45
2022/08/10 02:37:09;;;;;;;5.97;2.20;;;20.60;55.30;;;;;;7381862;19;20364;-45
2022/08/10 02:39:39;;;;;;;2.60;2.40;;;20.80;55.30;;;;;;7382048;19;20367;-45
2022/08/10 02:42:17;;;;;;;2.20;2.00;;;20.80;55.30;;;;;;7382610;19;20759;-45
2022/08/10 02:44:54;;;;;;;2.30;2.10;;;20.80;55.50;;;;;;7381385;19;20388;-45
2022/08/10 02:47:31;;;;;;;3.03;2.73;;;20.50;55.90;;;;;;7383483;19;20761;-45
2022/08/10 02:50:08;;;;;;;2.20;2.10;;;20.50;56.10;;;;;;7381000;19;20723;-45
2022/08/10 02:52:48;;;;;;;3.40;2.00;;;20.40;56.30;;;;;;7380463;19;20383;-45
2022/08/10 02:55:23;;;;;;;2.53;1.80;;;20.40;56.50;;;;;;7388044;19;20380;-45
2022/08/10 02:57:56;;;;;;;2.50;2.00;;;20.40;56.50;;;;;;7390253;19;21074;-46
2022/08/10 03:00:28;;;;;;;2.63;2.40;;;20.50;56.40;;;;;;7389395;19;20459;-45
2022/08/10 03:03:02;;;;;;;3.90;3.13;;;20.60;56.10;;;;;;7387791;19;20804;-45
2022/08/10 03:05:32;;;;;;;2.87;2.10;;;20.60;56.10;;;;;;7387029;19;20410;-45
2022/08/10 03:08:03;;;;;;;2.43;2.07;;;20.50;56.30;;;;;;7389748;19;20412;-45
2022/08/10 03:10:35;;;;;;;2.07;1.87;;;20.40;56.40;;;;;;7390984;19;20952;-45
2022/08/10 03:13:07;;;;;;;2.53;2.00;;;20.30;56.80;;;;;;7388676;19;20412;-45
2022/08/10 03:15:40;;;;;;;2.63;2.00;;;20.40;56.50;;;;;;7389219;19;20368;-45
2022/08/10 03:18:15;;;;;;;2.77;2.57;;;20.40;56.70;;;;;;7390669;19;20383;-45
2022/08/10 03:20:46;;;;;;;2.53;2.33;;;20.20;56.90;;;;;;7390692;19;20364;-46
2022/08/10 03:23:19;;;;;;;2.77;2.40;;;20.20;57.10;;;;;;7390215;19;20895;-46
2022/08/10 03:25:51;;;;;;;2.37;2.17;;;20.20;57.20;;;;;;7388540;19;20380;-46
2022/08/10 03:28:25;;;;;;;2.10;2.00;;;20.20;57.30;;;;;;7390133;19;20381;-46
2022/08/10 03:30:56;;;;;;;3.03;2.70;;;20.00;57.40;;;;;;7389409;19;20407;-46
2022/08/10 03:33:31;;;;;;;3.50;2.40;;;20.20;57.40;;;;;;7388146;19;20857;-46
2022/08/10 03:36:01;;;;;;;2.63;2.43;;;20.00;57.60;;;;;;7389386;19;20416;-46
2022/08/10 03:38:30;;;;;;;4.23;2.70;;;20.10;57.40;;;;;;7389727;19;20417;-47
2022/08/10 03:41:03;;;;;;;3.00;2.30;;;20.00;57.60;;;;;;7386709;19;20395;-46
2022/08/10 03:43:33;;;;;;;2.30;2.10;;;20.10;57.50;;;;;;7388266;19;20436;-46
2022/08/10 03:46:09;;;;;;;2.83;2.63;;;20.00;57.80;;;;;;7385675;19;20419;-46
2022/08/10 03:48:43;;;;;;;2.03;1.87;;;19.90;57.90;;;;;;7389932;19;20424;-46
2022/08/10 03:51:13;;;;;;;2.50;2.30;;;19.80;58.30;;;;;;7388620;19;20722;-46
2022/08/10 03:53:43;;;;;;;3.27;2.40;;;19.70;58.40;;;;;;7388700;19;20369;-46
2022/08/10 03:56:12;;;;;;;3.23;2.50;;;19.70;58.50;;;;;;7387528;19;20755;-46
2022/08/10 03:58:42;;;;;;;2.43;2.23;;;19.60;58.60;;;;;;7386954;19;20914;-46
2022/08/10 04:01:12;;;;;;;2.80;2.40;;;19.60;59.00;;;;;;7384578;19;20437;-45
2022/08/10 04:03:44;;;;;;;2.93;2.63;;;19.60;58.80;;;;;;7386347;19;20397;-46
2022/08/10 04:06:14;;;;;;;3.17;2.70;;;19.50;70.50;;;;;;7382315;19;20424;-46
2022/08/10 04:08:44;;;;;;;3.90;2.70;;;19.60;77.90;;;;;;7388429;19;20376;-46
2022/08/10 04:11:14;;;;;;;4.87;3.00;;;19.60;77.00;;;;;;7387500;19;20416;-45
2022/08/10 04:13:44;;;;;;;3.90;3.50;;;19.60;68.10;;;;;;7386272;19;20395;-46
2022/08/10 04:16:16;;;;;;;5.00;4.13;;;19.50;63.30;;;;;;7387653;19;20941;-46
2022/08/10 04:18:48;;;;;;;5.80;4.50;;;19.50;64.30;;;;;;7389126;19;20420;-46
2022/08/10 04:21:22;;;;;;;4.60;3.67;;;19.60;58.90;;;;;;7385287;19;20382;-45
2022/08/10 04:23:53;;;;;;;8.10;4.87;;;19.60;59.00;;;;;;7386835;19;20412;-45
2022/08/10 04:26:23;;;;;;;10.07;6.30;;;19.50;59.10;;;;;;7383316;19;20922;-46
2022/08/10 04:28:56;;;;;;;9.33;7.27;;;19.40;59.20;;;;;;7386460;19;20362;-45
2022/08/10 04:31:28;;;;;;;9.33;6.80;;;19.40;59.30;;;;;;7387884;19;20380;-46
2022/08/10 04:34:03;;;;;;;12.23;7.67;;;19.40;59.10;;;;;;7386710;19;20455;-46
2022/08/10 04:36:33;;;;;;;14.47;8.80;;;19.40;59.40;;;;;;7386542;19;20436;-46
2022/08/10 04:39:05;;;;;;;14.63;8.57;;;19.40;59.40;;;;;;7388593;19;20383;-46
2022/08/10 04:41:35;;;;;;;12.97;8.70;;;19.40;59.50;;;;;;7387057;19;20428;-46
2022/08/10 04:44:05;;;;;;;16.60;8.70;;;19.40;59.30;;;;;;7387683;19;20929;-47
2022/08/10 04:46:35;;;;;;;13.80;9.33;;;19.40;59.40;;;;;;7385855;19;20417;-46
2022/08/10 04:49:07;;;;;;;17.40;10.20;;;19.50;59.10;;;;;;7385857;19;20380;-46
2022/08/10 04:51:36;;;;;;;16.33;9.00;;;19.60;59.20;;;;;;7385264;19;20376;-46
2022/08/10 04:54:06;;;;;;;11.80;7.77;;;19.50;59.10;;;;;;7385433;19;20383;-46
2022/08/10 04:56:38;;;;;;;9.00;7.00;;;19.50;59.30;;;;;;7386920;19;20364;-46
2022/08/10 04:59:09;;;;;;;13.47;7.60;;;19.50;59.30;;;;;;7386050;19;20467;-46
2022/08/10 05:01:42;;;;;;;8.00;6.40;;;19.50;59.40;;;;;;7383674;19;20511;-45
2022/08/10 05:04:14;;;;;;;8.97;7.27;;;19.50;59.30;;;;;;7384162;19;20416;-45
2022/08/10 05:06:45;;;;;;;7.80;5.90;;;19.50;59.50;;;;;;7384698;19;20376;-45
2022/08/10 05:09:15;;;;;;;12.27;7.97;;;19.40;59.60;;;;;;7386620;19;20380;-45
2022/08/10 05:11:44;;;;;;;8.10;5.60;;;19.40;59.90;;;;;;7385365;19;20376;-45
2022/08/10 05:14:14;;;;;;;10.17;4.63;;;19.40;59.80;;;;;;7386547;19;20387;-45
2022/08/10 05:16:43;;;;;;;8.33;4.90;;;19.50;59.70;;;;;;7385393;19;20996;-46
2022/08/10 05:19:15;;;;;;;6.63;4.37;;;19.50;59.80;;;;;;7384585;19;20387;-45
2022/08/10 05:21:45;;;;;;;6.50;4.60;;;19.50;60.30;;;;;;7384103;19;20375;-45
2022/08/10 05:24:15;;;;;;;8.93;3.93;;;19.60;59.80;;;;;;7386412;19;20729;-45
2022/08/10 05:26:46;;;;;;;6.87;4.40;;;19.50;60.30;;;;;;7384736;19;20379;-46
2022/08/10 05:29:19;;;;;;;4.10;3.30;;;19.70;60.00;;;;;;7387132;19;20413;-45
2022/08/10 05:31:49;;;;;;;3.97;3.50;;;19.70;59.70;;;;;;7385301;19;20383;-45
2022/08/10 05:34:25;;;;;;;3.50;3.13;;;19.80;59.80;;;;;;7384877;19;20433;-46
2022/08/10 05:36:55;;;;;;;5.30;3.87;;;19.90;59.70;;;;;;7384611;19;20479;-46
2022/08/10 05:39:25;;;;;;;5.77;3.63;;;20.00;59.60;;;;;;7383726;19;20384;-46
2022/08/10 05:41:55;;;;;;;4.90;4.13;;;20.00;59.60;;;;;;7386802;19;20388;-46
2022/08/10 05:44:28;;;;;;;5.47;3.67;;;20.30;59.10;;;;;;7385141;19;20369;-46
2022/08/10 05:46:58;;;;;;;4.10;3.70;;;20.50;58.50;;;;;;7382785;19;20417;-46
2022/08/10 05:49:30;;;;;;;3.60;3.03;;;20.60;58.20;;;;;;7383480;19;20379;-46
2022/08/10 05:51:59;;;;;;;5.33;3.73;;;20.80;57.80;;;;;;7383388;19;20907;-46
2022/08/10 05:54:29;;;;;;;3.63;3.30;;;21.00;57.60;;;;;;7383578;19;20379;-46
2022/08/10 05:56:58;;;;;;;3.77;3.40;;;21.20;57.00;;;;;;7384078;19;20380;-46
2022/08/10 05:59:32;;;;;;;5.73;3.40;;;21.30;56.40;;;;;;7383757;19;20747;-46
2022/08/10 06:02:04;;;;;;;6.00;3.53;;;21.40;56.50;;;;;;7383767;19;20400;-46
2022/08/10 06:04:42;;;;;;;4.63;3.73;;;21.60;56.20;;;;;;7384842;19;20384;-46
2022/08/10 06:07:16;;;;;;;4.80;3.27;;;21.80;55.90;;;;;;7381297;19;20387;-46
2022/08/10 06:09:48;;;;;;;6.40;3.10;;;21.90;55.20;;;;;;7383747;19;20480;-46
2022/08/10 06:12:20;;;;;;;4.30;2.90;;;21.90;54.60;;;;;;7383706;19;20364;-46
2022/08/10 06:15:01;;;;;;;4.27;2.70;;;21.90;54.60;;;;;;7384013;19;20391;-46
2022/08/10 06:17:34;;;;;;;3.50;2.83;;;21.90;54.80;;;;;;7383456;19;20391;-46
2022/08/10 06:20:07;;;;;;;5.80;3.50;;;22.10;54.00;;;;;;7382079;19;20376;-46
2022/08/10 06:22:37;;;;;;;5.03;3.20;;;22.30;53.50;;;;;;7383409;19;20821;-46
2022/08/10 06:25:08;;;;;;;4.17;2.67;;;22.40;53.50;;;;;;7384372;19;20381;-46
2022/08/10 06:27:40;;;;;;;3.17;2.77;;;22.60;53.20;;;;;;7383340;19;20376;-46
2022/08/10 06:30:11;;;;;;;3.23;2.90;;;22.70;52.50;;;;;;7379851;19;20439;-46
2022/08/10 06:32:41;;;;;;;3.60;2.40;;;22.80;52.10;;;;;;7384509;19;20380;-46
2022/08/10 06:35:14;;;;;;;2.87;2.57;;;23.00;52.70;;;;;;7384456;19;20380;-46
2022/08/10 06:37:47;;;;;;;4.03;2.80;;;23.20;52.00;;;;;;7383285;19;20387;-46
2022/08/10 06:40:16;;;;;;;2.77;2.50;;;23.30;51.10;;;;;;7381910;19;20421;-46
2022/08/10 06:42:50;;;;;;;2.33;2.13;;;23.50;50.90;;;;;;7382020;19;20423;-46
2022/08/10 06:45:25;;;;;;;2.60;2.40;;;23.70;50.20;;;;;;7383018;19;20379;-46
2022/08/10 06:48:00;;;;;;;2.87;2.30;;;23.80;50.00;;;;;;7382054;19;20390;-46
2022/08/10 06:50:36;;;;;;;2.90;2.50;;;23.90;49.60;;;;;;7381984;19;20455;-46
2022/08/10 06:53:11;;;;;;;8.50;2.37;;;24.00;49.40;;;;;;7383570;19;20392;-46
2022/08/10 06:55:42;;;;;;;2.60;2.20;;;24.20;50.10;;;;;;7381637;19;20372;-46
2022/08/10 06:58:15;;;;;;;4.10;2.47;;;24.30;49.00;;;;;;7382399;19;20387;-46
2022/08/10 07:00:45;;;;;;;4.83;2.50;;;24.50;47.80;;;;;;7380892;19;20432;-46
2022/08/10 07:03:17;;;;;;;2.20;2.00;;;24.60;47.70;;;;;;7383286;19;20464;-46
2022/08/10 07:05:51;;;;;;;3.03;2.27;;;24.70;48.50;;;;;;7380457;19;20373;-46
2022/08/10 07:08:24;;;;;;;2.63;2.40;;;24.80;52.40;;;;;;7382786;19;20416;-46
2022/08/10 07:10:57;;;;;;;2.43;1.77;;;24.80;48.70;;;;;;7383973;19;20376;-47
2022/08/10 07:13:28;;;;;;;3.20;2.13;;;24.90;48.50;;;;;;7381282;19;20776;-47
2022/08/10 07:15:59;;;;;;;4.27;2.60;;;25.10;46.30;;;;;;7379457;19;20377;-47
2022/08/10 07:18:31;;;;;;;1.80;1.70;;;25.20;45.50;;;;;;7380099;19;20399;-47
2022/08/10 07:21:04;;;;;;;3.57;2.27;;;25.40;45.40;;;;;;7381823;19;20909;-47
2022/08/10 07:23:35;;;;;;;3.63;2.33;;;25.50;45.80;;;;;;7384336;19;20376;-47
2022/08/10 07:26:05;;;;;;;3.70;2.30;;;25.60;44.70;;;;;;7382294;19;20664;-47
2022/08/10 07:28:36;;;;;;;4.30;2.23;;;25.70;45.00;;;;;;7383192;19;20500;-47
2022/08/10 07:31:06;;;;;;;4.20;2.13;;;25.90;44.30;;;;;;7382283;19;20372;-47
2022/08/10 07:33:37;;;;;;;8.23;1.77;;;26.00;44.90;;;;;;7382039;19;20388;-47
2022/08/10 07:36:11;;;;;;;2.07;1.87;;;26.10;43.70;;;;;;7379725;19;20890;-47
2022/08/10 07:38:43;;;;;;;1.77;1.63;;;26.20;43.80;;;;;;7383019;19;20372;-47
2022/08/10 07:41:16;;;;;;;2.20;1.50;;;26.20;43.50;;;;;;7383578;19;20396;-47
2022/08/10 07:43:48;;;;;;;2.30;2.00;;;26.40;43.20;;;;;;7390341;19;20384;-46
2022/08/10 07:46:21;;;;;;;4.93;2.40;;;26.50;42.70;;;;;;7388278;19;20400;-46
2022/08/10 07:48:56;;;;;;;2.80;1.80;;;26.70;42.70;;;;;;7389938;19;20380;-46
2022/08/10 07:51:29;;;;;;;2.80;2.03;;;26.80;42.20;;;;;;7388755;19;20390;-46
2022/08/10 07:54:04;;;;;;;2.50;2.20;;;27.00;42.20;;;;;;7390044;19;20967;-47
2022/08/10 07:56:37;;;;;;;2.33;2.00;;;27.10;42.00;;;;;;7387229;19;20372;-47
2022/08/10 07:59:11;;;;;;;1.70;1.60;;;27.10;41.80;;;;;;7387396;19;20384;-47
2022/08/10 08:01:46;;;;;;;2.77;1.50;;;27.20;41.60;;;;;;7387315;19;20437;-47
2022/08/10 08:04:18;;;;;;;3.13;1.80;;;27.30;41.90;;;;;;7386628;19;20815;-47
2022/08/10 08:06:51;;;;;;;2.40;1.60;;;27.40;41.60;;;;;;7385188;19;20391;-47
2022/08/10 08:09:22;;;;;;;2.30;1.60;;;27.60;40.80;;;;;;7388116;19;20364;-47
2022/08/10 08:11:53;;;;;;;4.60;2.13;;;27.70;40.80;;;;;;7387662;19;20929;-47
2022/08/10 08:14:23;;;;;;;4.37;2.20;;;27.90;40.60;;;;;;7386731;19;20447;-47
2022/08/10 08:16:55;;;;;;;3.27;2.00;;;28.20;40.50;;;;;;7388864;19;20401;-47
2022/08/10 08:19:27;;;;;;;2.53;1.70;;;28.30;39.80;;;;;;7386424;19;20375;-47
2022/08/10 08:21:59;;;;;;;4.93;1.70;;;28.50;39.60;;;;;;7386452;19;20897;-47
2022/08/10 08:24:30;;;;;;;3.93;1.97;;;28.60;39.30;;;;;;7388456;19;20762;-47
2022/08/10 08:27:00;;;;;;;1.60;1.50;;;28.80;39.20;;;;;;7386606;19;20395;-47
2022/08/10 08:29:34;;;;;;;3.60;1.73;;;29.00;38.70;;;;;;7385887;19;20395;-47
2022/08/10 08:32:05;;;;;;;1.97;1.67;;;28.90;38.40;;;;;;7387477;19;21368;-47
2022/08/10 08:34:38;;;;;;;3.50;1.83;;;28.80;38.40;;;;;;7387002;19;20479;-47
2022/08/10 08:37:13;;;;;;;2.80;1.60;;;29.00;38.20;;;;;;7388128;19;20910;-47
2022/08/10 08:39:44;;;;;;;1.60;1.50;;;29.30;38.20;;;;;;7387435;19;20379;-47
2022/08/10 08:42:39;;;;;;;2.33;1.50;;;29.30;36.90;;;;;;7384277;19;20826;-47
2022/08/10 08:45:24;;;;;;;2.13;1.60;;;29.70;36.70;;;;;;7387180;19;20853;-47
2022/08/10 08:48:32;;;;;;;1.73;1.57;;;29.90;37.00;;;;;;7385829;19;21375;-48
2022/08/10 08:51:15;;;;;;;2.40;1.80;;;30.10;35.90;;;;;;7385862;19;20419;-48
2022/08/10 08:54:09;;;;;;;3.37;2.37;;;30.10;36.30;;;;;;7386759;19;20375;-47
2022/08/10 08:56:51;;;;;;;4.30;1.77;;;30.30;35.60;;;;;;7383214;19;20796;-47
2022/08/10 08:59:32;;;;;;;2.80;1.90;;;30.50;35.70;;;;;;7387166;19;20928;-47
2022/08/10 09:02:18;;;;;;;2.57;1.43;;;30.50;35.30;;;;;;7385731;19;20395;-48
2022/08/10 09:05:02;;;;;;;1.93;1.33;;;30.90;35.50;;;;;;7384703;19;20392;-48
2022/08/10 09:07:52;;;;;;;2.83;1.40;;;31.40;34.70;;;;;;7383179;19;20376;-47
2022/08/10 09:10:33;;;;;;;2.73;2.20;;;31.90;32.90;;;;;;7385667;19;20400;-48
2022/08/10 09:13:11;;;;;;;1.90;1.70;;;32.30;32.70;;;;;;7385779;19;20452;-48
2022/08/10 09:15:48;;;;;;;2.73;1.40;;;32.50;32.40;;;;;;7386298;19;21051;-48
2022/08/10 09:18:25;;;;;;;1.70;1.30;;;32.70;32.10;;;;;;7384161;19;21102;-48
2022/08/10 09:21:05;;;;;;;5.77;1.97;;;32.90;31.60;;;;;;7383584;19;20414;-48
2022/08/10 09:23:43;;;;;;;1.60;1.40;;;33.20;30.50;;;;;;7385637;19;20468;-48
2022/08/10 09:26:20;;;;;;;2.10;1.30;;;33.30;30.00;;;;;;7384202;19;20386;-48
2022/08/10 09:28:54;;;;;;;1.87;1.30;;;33.60;29.70;;;;;;7386180;19;20425;-48
2022/08/10 09:31:26;;;;;;;1.60;1.03;;;33.20;28.40;;;;;;7383586;19;20911;-48
2022/08/10 09:34:17;;;;;;;3.27;1.27;;;33.20;28.90;;;;;;7385106;19;20384;-48
2022/08/10 09:36:57;;;;;;;2.63;1.90;;;33.50;28.20;;;;;;7385535;19;20942;-48
2022/08/10 09:39:34;;;;;;;3.57;1.50;;;33.70;27.90;;;;;;7385988;19;20372;-48
2022/08/10 09:42:15;;;;;;;1.20;1.10;;;34.30;27.50;;;;;;7385090;19;20391;-48
2022/08/10 09:44:53;;;;;;;3.10;1.30;;;34.40;27.20;;;;;;7383749;19;20379;-48
2022/08/10 09:47:34;;;;;;;2.50;1.00;;;34.80;26.80;;;;;;7382854;19;20423;-48
2022/08/10 09:50:13;;;;;;;3.73;1.40;;;35.40;26.40;;;;;;7383978;19;20421;-48
2022/08/10 09:52:55;;;;;;;2.00;1.30;;;35.80;26.20;;;;;;7385895;19;20380;-48
2022/08/10 09:55:34;;;;;;;1.40;1.30;;;36.60;25.80;;;;;;7384684;19;20372;-49
2022/08/10 09:58:28;;;;;;;1.73;1.13;;;36.90;25.40;;;;;;7386246;19;20784;-49
2022/08/10 10:01:07;;;;;;;2.33;1.10;;;37.50;25.40;;;;;;7382346;19;20424;-49
2022/08/10 10:03:46;;;;;;;3.87;1.30;;;37.90;24.50;;;;;;7382350;19;20396;-49
2022/08/10 10:06:21;;;;;;;1.30;1.20;;;38.20;23.40;;;;;;7383316;19;20383;-49
2022/08/10 10:09:02;;;;;;;1.17;1.07;;;38.50;23.00;;;;;;7383117;19;20762;-49
2022/08/10 10:11:45;;;;;;;1.47;1.20;;;38.50;23.30;;;;;;7382811;19;20371;-48
2022/08/10 10:14:27;;;;;;;1.70;1.00;;;38.90;23.50;;;;;;7386337;19;20380;-48
2022/08/10 10:17:07;;;;;;;1.57;1.10;;;38.80;23.50;;;;;;7383596;19;20366;-48
2022/08/10 10:19:56;;;;;;;1.63;1.40;;;39.20;23.50;;;;;;7384556;19;21520;-48
2022/08/10 10:22:50;;;;;;;2.60;1.17;;;39.20;23.70;;;;;;7382750;19;20380;-48
2022/08/10 10:25:30;;;;;;;3.57;1.20;;;39.90;22.50;;;;;;7383617;19;20413;-48
2022/08/10 10:28:14;;;;;;;1.57;1.10;;;40.30;22.30;;;;;;7381924;19;20375;-48
2022/08/10 10:30:57;;;;;;;2.63;1.20;;;40.50;22.10;;;;;;7382212;19;20780;-48
2022/08/10 10:33:37;;;;;;;2.97;1.50;;;40.70;21.80;;;;;;7382864;19;20416;-49
2022/08/10 10:36:08;;;;;;;4.90;1.70;;;41.20;21.80;;;;;;7382682;19;20914;-49
2022/08/10 10:38:43;;;;;;;2.07;1.10;;;41.50;21.90;;;;;;7382417;19;20379;-49
2022/08/10 10:41:21;;;;;;;2.50;1.47;;;41.90;21.80;;;;;;7384071;19;20368;-49
2022/08/10 10:44:10;;;;;;;2.97;1.47;;;42.10;21.50;;;;;;7384213;19;20744;-49
2022/08/10 10:46:55;;;;;;;1.93;1.10;;;41.50;21.50;;;;;;7382537;19;20364;-49
2022/08/10 10:49:44;;;;;;;4.77;1.50;;;41.30;21.60;;;;;;7383894;19;20368;-49
2022/08/10 10:52:26;;;;;;;2.63;1.20;;;41.90;21.70;;;;;;7384408;19;20416;-49
2022/08/10 10:55:06;;;;;;;2.20;1.40;;;42.70;21.40;;;;;;7381738;19;20422;-49
2022/08/10 10:57:42;;;;;;;2.70;1.20;;;43.70;20.60;;;;;;7381359;19;20382;-49
2022/08/10 11:00:14;;;;;;;2.23;1.20;;;43.70;20.70;;;;;;7380908;19;20438;-46
2022/08/10 11:02:58;;;;;;;2.47;1.30;;;44.30;20.10;;;;;;7382207;19;20411;-48
2022/08/10 11:05:35;;;;;;;2.23;1.10;;;43.90;19.80;;;;;;7380576;19;20621;-49
2022/08/10 11:08:10;;;;;;;1.90;1.20;;;43.60;20.70;;;;;;7380036;19;20399;-49
2022/08/10 11:10:48;;;;;;;1.43;1.10;;;44.00;19.90;;;;;;7383692;19;20414;-49
2022/08/10 11:13:37;;;;;;;1.57;1.40;;;43.70;20.20;;;;;;7382411;19;20924;-49
2022/08/10 11:16:11;;;;;;;1.30;1.10;;;44.10;19.80;;;;;;7385265;19;21553;-47
2022/08/10 11:19:09;;;;;;;1.57;1.00;;;43.90;19.60;;;;;;7389842;19;20394;-49
2022/08/10 11:21:50;;;;;;;1.17;0.80;;;43.40;19.90;;;;;;7389595;19;20372;-49
2022/08/10 11:24:26;;;;;;;1.50;1.10;;;43.40;19.70;;;;;;7386836;19;20941;-50
2022/08/10 11:27:04;;;;;;;2.60;1.07;;;43.00;19.80;;;;;;7389789;19;20733;-49
2022/08/10 11:29:40;;;;;;;1.73;1.30;;;43.50;20.20;;;;;;7390090;19;20374;-47
2022/08/10 11:32:17;;;;;;;1.40;1.00;;;43.90;19.40;;;;;;7388787;19;20372;-47
2022/08/10 11:34:55;;;;;;;1.30;1.13;;;44.30;19.40;;;;;;7391020;19;20374;-47
2022/08/10 11:37:37;;;;;;;1.57;1.00;;;44.70;19.60;;;;;;7388544;19;20372;-47
2022/08/10 11:40:13;;;;;;;1.67;1.33;;;45.40;19.10;;;;;;7390297;19;20387;-48
2022/08/10 11:42:50;;;;;;;2.20;1.30;;;45.50;19.10;;;;;;7389249;19;20372;-47
2022/08/10 11:45:23;;;;;;;1.37;1.10;;;45.90;19.10;;;;;;7388433;19;20471;-47
2022/08/10 11:47:58;;;;;;;1.47;1.20;;;45.90;18.90;;;;;;7387288;19;20384;-47
2022/08/10 11:50:34;;;;;;;1.80;1.40;;;45.50;18.80;;;;;;7387700;19;20931;-47
2022/08/10 11:53:15;;;;;;;3.50;1.10;;;45.20;19.00;;;;;;7389188;19;20372;-47
2022/08/10 11:55:51;;;;;;;2.80;1.10;;;45.30;19.00;;;;;;7389894;19;20496;-47
2022/08/10 12:01:10;;;;;;;2.53;0.97;;;45.80;18.70;;;;;;7386586;19;20464;-47
2022/08/10 12:03:43;;;;;;;2.83;1.30;;;46.20;18.50;;;;;;7387563;19;20392;-47
2022/08/10 12:06:19;;;;;;;1.93;1.07;;;46.10;18.70;;;;;;7388626;19;20954;-47
2022/08/10 12:08:50;;;;;;;2.40;1.07;;;45.30;18.90;;;;;;7385097;19;20773;-47
2022/08/10 12:11:25;;;;;;;1.43;1.30;;;45.20;18.90;;;;;;7388473;19;21184;-47
2022/08/10 12:13:59;;;;;;;3.17;1.07;;;45.40;19.10;;;;;;7386836;19;20472;-47
2022/08/10 12:16:31;;;;;;;1.43;1.00;;;45.50;19.10;;;;;;7387335;19;21042;-49
2022/08/10 12:19:05;;;;;;;1.57;1.20;;;46.30;18.90;;;;;;7388132;19;20473;-50
2022/08/10 12:21:43;;;;;;;1.43;1.33;;;46.60;18.40;;;;;;7388374;19;20914;-47
2022/08/10 12:24:22;;;;;;;2.00;1.30;;;46.70;18.20;;;;;;7388405;19;20966;-48
2022/08/10 12:26:58;;;;;;;1.87;1.10;;;46.80;18.20;;;;;;7385462;19;20361;-48
2022/08/10 12:29:35;;;;;;;1.13;1.03;;;47.00;18.20;;;;;;7384408;19;20379;-48
2022/08/10 12:32:10;;;;;;;1.70;1.17;;;46.60;18.60;;;;;;7388660;19;20395;-48
2022/08/10 12:34:45;;;;;;;4.50;1.47;;;46.80;18.00;;;;;;7387436;19;20978;-47
2022/08/10 12:37:24;;;;;;;1.33;1.00;;;46.20;18.60;;;;;;7385936;19;20372;-48
2022/08/10 12:40:08;;;;;;;2.07;1.33;;;46.40;18.50;;;;;;7387810;19;20384;-48
2022/08/10 12:42:42;;;;;;;1.30;1.00;;;46.60;18.40;;;;;;7387656;19;20917;-48
2022/08/10 12:45:20;;;;;;;2.30;1.10;;;46.80;18.20;;;;;;7386320;19;20798;-48
2022/08/10 12:48:00;;;;;;;1.97;1.20;;;47.20;17.90;;;;;;7387245;19;20965;-48
2022/08/10 12:50:37;;;;;;;2.40;1.20;;;47.20;18.00;;;;;;7386833;19;20368;-47
2022/08/10 12:53:19;;;;;;;1.30;1.10;;;45.70;18.60;;;;;;7388501;19;20372;-48
2022/08/10 12:55:51;;;;;;;2.60;1.50;;;44.50;19.30;;;;;;7385950;19;20401;-48
2022/08/10 12:58:22;;;;;;;2.27;1.17;;;43.10;20.00;;;;;;7384299;19;20385;-48
2022/08/10 13:00:55;;;;;;;4.40;1.40;;;41.90;20.60;;;;;;7383647;19;20423;-48
2022/08/10 13:03:26;;;;;;;3.53;1.40;;;39.90;21.50;;;;;;7385049;19;20388;-48
2022/08/10 13:06:00;;;;;;;2.07;1.40;;;38.70;22.50;;;;;;7385502;19;20771;-48
2022/08/10 13:11:24;;;;;;;2.20;1.37;;;37.30;23.40;;;;;;7385229;19;20372;-48
2022/08/10 13:13:57;;;;;;;1.43;1.33;;;36.60;23.70;;;;;;7386959;19;20810;-47
2022/08/10 13:16:29;;;;;;;3.37;1.90;;;35.70;24.40;;;;;;7362635;19;20401;-47
2022/08/10 13:19:03;;;;;;;1.97;1.50;;;34.80;25.00;;;;;;7384156;19;20852;-47
2022/08/10 13:21:37;;;;;;;3.03;1.30;;;34.10;25.60;;;;;;7385104;19;20369;-47
2022/08/10 13:24:13;;;;;;;2.63;1.50;;;34.00;26.00;;;;;;7386855;19;20463;-47
2022/08/10 13:26:49;;;;;;;2.60;1.40;;;34.00;26.20;;;;;;7384425;19;20780;-47
2022/08/10 13:29:20;;;;;;;1.40;1.30;;;34.00;26.10;;;;;;7384420;19;20436;-47